createdAt,value
2017-06-30T00:02:26.180Z,17.75
2017-06-30T00:04:54.812Z,17.75
2017-06-30T00:07:23.215Z,17.76
2017-06-30T00:09:51.628Z,17.71
2017-06-30T00:12:20.054Z,17.70
2017-06-30T00:14:48.467Z,17.64
2017-06-30T00:17:17.585Z,17.40
2017-06-30T00:19:45.979Z,17.21
2017-06-30T00:22:14.396Z,17.09
2017-06-30T00:24:42.803Z,17.02
2017-06-30T00:27:11.219Z,16.95
2017-06-30T00:29:39.635Z,16.91
2017-06-30T00:32:08.056Z,16.91
2017-06-30T00:34:36.452Z,16.90
2017-06-30T00:37:05.091Z,16.85
2017-06-30T00:39:33.498Z,16.84
2017-06-30T00:42:01.883Z,16.87
2017-06-30T00:44:30.304Z,16.84
2017-06-30T00:46:59.105Z,16.76
2017-06-30T00:49:27.524Z,16.77
2017-06-30T00:51:55.914Z,16.75
2017-06-30T00:54:24.331Z,16.75
2017-06-30T00:56:53.136Z,16.70
2017-06-30T00:59:21.552Z,16.68
2017-06-30T01:01:49.962Z,16.64
2017-06-30T01:04:18.480Z,16.64
2017-06-30T01:06:46.964Z,16.64
2017-06-30T01:09:15.367Z,16.70
2017-06-30T01:11:43.794Z,16.77
2017-06-30T01:14:12.204Z,16.87
2017-06-30T01:16:40.786Z,16.99
2017-06-30T01:19:09.206Z,17.06
2017-06-30T01:21:37.648Z,17.11
2017-06-30T01:24:06.073Z,17.15
2017-06-30T01:26:34.480Z,17.16
2017-06-30T01:29:02.908Z,17.15
2017-06-30T01:31:31.310Z,17.15
2017-06-30T01:33:59.856Z,17.15
2017-06-30T01:36:28.259Z,17.17
2017-06-30T01:38:56.661Z,17.17
2017-06-30T01:41:25.091Z,17.18
2017-06-30T01:43:53.900Z,17.18
2017-06-30T01:46:22.314Z,17.19
2017-06-30T01:48:51.079Z,17.20
2017-06-30T01:51:19.511Z,17.22
2017-06-30T01:53:47.916Z,17.23
2017-06-30T01:56:16.353Z,17.21
2017-06-30T01:58:44.746Z,17.20
2017-06-30T02:01:13.562Z,17.21
2017-06-30T02:03:42.355Z,17.21
2017-06-30T02:06:10.772Z,17.20
2017-06-30T02:08:39.177Z,17.17
2017-06-30T02:11:07.596Z,17.15
2017-06-30T02:13:36.030Z,17.06
2017-06-30T02:16:04.435Z,16.98
2017-06-30T02:18:32.843Z,16.93
2017-06-30T02:21:01.520Z,16.89
2017-06-30T02:23:29.947Z,16.83
2017-06-30T02:25:58.338Z,16.82
2017-06-30T02:28:26.958Z,16.79
2017-06-30T02:30:55.767Z,16.81
2017-06-30T02:33:24.179Z,16.84
2017-06-30T02:35:52.600Z,16.83
2017-06-30T02:38:21.394Z,16.84
2017-06-30T02:40:50.312Z,16.83
2017-06-30T02:43:18.700Z,16.84
2017-06-30T02:45:47.113Z,16.88
2017-06-30T02:48:15.510Z,16.86
2017-06-30T02:50:43.933Z,16.93
2017-06-30T02:53:12.326Z,16.96
2017-06-30T02:55:41.088Z,17.02
2017-06-30T02:58:09.878Z,17.03
2017-06-30T03:00:38.778Z,17.05
2017-06-30T03:03:07.281Z,17.07
2017-06-30T03:05:35.692Z,17.07
2017-06-30T03:08:04.119Z,17.08
2017-06-30T03:10:32.516Z,17.08
2017-06-30T03:13:00.941Z,17.07
2017-06-30T03:15:29.366Z,17.05
2017-06-30T03:17:57.933Z,17.05
2017-06-30T03:20:26.724Z,17.06
2017-06-30T03:22:55.521Z,17.07
2017-06-30T03:25:23.941Z,17.07
2017-06-30T03:27:52.332Z,17.04
2017-06-30T03:30:20.752Z,17.04
2017-06-30T03:32:49.634Z,17.01
2017-06-30T03:35:18.435Z,17.01
2017-06-30T03:37:47.227Z,16.99
2017-06-30T03:40:15.637Z,16.98
2017-06-30T03:42:44.046Z,16.95
2017-06-30T03:45:12.800Z,16.96
2017-06-30T03:47:41.214Z,16.94
2017-06-30T03:50:09.618Z,16.94
2017-06-30T03:52:38.321Z,16.95
2017-06-30T03:55:07.118Z,16.93
2017-06-30T03:57:35.689Z,16.89
2017-06-30T04:00:04.496Z,16.90
2017-06-30T04:02:32.900Z,16.87
2017-06-30T04:05:01.324Z,16.88
2017-06-30T04:07:29.711Z,16.82
2017-06-30T04:09:58.127Z,16.80
2017-06-30T04:12:26.528Z,16.78
2017-06-30T04:14:54.942Z,16.76
2017-06-30T04:17:23.349Z,16.79
2017-06-30T04:19:52.547Z,16.78
2017-06-30T04:22:21.414Z,16.79
2017-06-30T04:24:49.806Z,16.75
2017-06-30T04:27:18.615Z,16.77
2017-06-30T04:29:47.005Z,16.76
2017-06-30T04:32:15.478Z,16.78
2017-06-30T04:34:43.862Z,16.77
2017-06-30T04:37:12.342Z,16.76
2017-06-30T04:39:40.750Z,16.76
2017-06-30T04:42:09.509Z,16.72
2017-06-30T04:44:37.913Z,16.72
2017-06-30T04:47:06.309Z,16.71
2017-06-30T04:49:34.727Z,16.71
2017-06-30T04:52:03.514Z,16.66
2017-06-30T04:54:32.016Z,16.65
2017-06-30T04:57:00.802Z,16.65
2017-06-30T04:59:30.023Z,16.64
2017-06-30T05:01:58.830Z,16.62
2017-06-30T05:04:27.225Z,16.67
2017-06-30T05:06:55.629Z,16.65
2017-06-30T05:09:24.023Z,16.66
2017-06-30T05:11:52.832Z,16.67
2017-06-30T05:14:21.244Z,16.66
2017-06-30T05:16:49.654Z,16.61
2017-06-30T05:19:18.051Z,16.65
2017-06-30T05:21:46.862Z,16.66
2017-06-30T05:24:15.272Z,16.68
2017-06-30T05:26:43.819Z,16.70
2017-06-30T05:29:12.215Z,16.66
2017-06-30T05:31:40.628Z,16.67
2017-06-30T05:34:09.035Z,16.68
2017-06-30T05:36:37.424Z,16.67
2017-06-30T05:39:06.373Z,16.67
2017-06-30T05:41:34.788Z,16.65
2017-06-30T05:44:03.200Z,16.66
2017-06-30T05:46:31.585Z,16.66
2017-06-30T05:49:00.160Z,16.66
2017-06-30T05:51:28.564Z,16.70
2017-06-30T05:53:56.957Z,16.73
2017-06-30T05:56:25.381Z,16.74
2017-06-30T05:58:53.770Z,16.71
2017-06-30T06:01:22.592Z,16.80
2017-06-30T06:03:50.978Z,16.78
2017-06-30T06:06:19.399Z,16.83
2017-06-30T06:08:48.838Z,16.83
2017-06-30T06:11:17.415Z,16.82
2017-06-30T06:13:46.219Z,16.82
2017-06-30T06:16:14.895Z,16.84
2017-06-30T06:18:43.324Z,16.82
2017-06-30T06:21:11.736Z,16.84
2017-06-30T06:23:40.559Z,16.86
2017-06-30T06:26:08.955Z,16.92
2017-06-30T06:28:37.371Z,16.98
2017-06-30T06:31:05.762Z,16.98
2017-06-30T06:33:34.368Z,16.96
2017-06-30T06:36:03.159Z,16.99
2017-06-30T06:38:32.053Z,17.01
2017-06-30T06:41:00.474Z,16.99
2017-06-30T06:43:28.874Z,17.10
2017-06-30T06:45:57.303Z,17.16
2017-06-30T06:48:25.705Z,17.12
2017-06-30T06:50:54.129Z,17.15
2017-06-30T06:53:22.518Z,17.12
2017-06-30T06:55:51.330Z,17.06
2017-06-30T06:58:19.713Z,17.03
2017-06-30T07:00:48.293Z,16.95
2017-06-30T07:03:16.683Z,17.00
2017-06-30T07:05:45.074Z,17.07
2017-06-30T07:08:13.488Z,17.08
2017-06-30T07:10:41.899Z,17.05
2017-06-30T07:13:10.708Z,17.10
2017-06-30T07:15:39.394Z,17.10
2017-06-30T07:18:07.818Z,17.10
2017-06-30T07:20:36.225Z,17.08
2017-06-30T07:23:06.061Z,17.00
2017-06-30T07:25:34.467Z,16.99
2017-06-30T07:28:02.873Z,17.06
2017-06-30T07:30:31.290Z,17.06
2017-06-30T07:33:00.078Z,17.03
2017-06-30T07:35:28.897Z,17.00
2017-06-30T07:37:57.871Z,17.08
2017-06-30T07:40:26.675Z,17.14
2017-06-30T07:42:55.085Z,17.15
2017-06-30T07:45:24.304Z,17.15
2017-06-30T07:47:52.696Z,17.24
2017-06-30T07:50:21.312Z,17.21
2017-06-30T07:52:49.697Z,17.25
2017-06-30T07:55:18.099Z,17.19
2017-06-30T07:57:46.515Z,17.31
2017-06-30T08:00:14.919Z,17.44
2017-06-30T08:02:43.727Z,17.54
2017-06-30T08:05:12.122Z,17.55
2017-06-30T08:07:40.642Z,17.57
2017-06-30T08:10:09.038Z,17.57
2017-06-30T08:12:37.451Z,17.66
2017-06-30T08:15:05.868Z,17.81
2017-06-30T08:17:34.519Z,17.74
2017-06-30T08:20:02.951Z,17.92
2017-06-30T08:22:31.368Z,18.04
2017-06-30T08:24:59.794Z,18.07
2017-06-30T08:27:28.699Z,18.15
2017-06-30T08:29:57.125Z,18.28
2017-06-30T08:32:25.549Z,18.29
2017-06-30T08:34:53.996Z,18.28
2017-06-30T08:37:22.477Z,18.30
2017-06-30T08:39:51.012Z,18.29
2017-06-30T08:42:19.411Z,18.30
2017-06-30T08:44:48.270Z,18.44
2017-06-30T08:47:16.695Z,18.61
2017-06-30T08:49:45.626Z,18.60
2017-06-30T08:52:14.050Z,18.62
2017-06-30T08:54:43.684Z,18.65
2017-06-30T08:57:12.619Z,18.90
2017-06-30T08:59:41.017Z,18.88
2017-06-30T09:02:09.410Z,18.81
2017-06-30T09:04:37.827Z,18.70
2017-06-30T09:07:06.240Z,18.62
2017-06-30T09:09:34.672Z,18.70
2017-06-30T09:12:03.466Z,18.77
2017-06-30T09:14:32.296Z,18.77
2017-06-30T09:17:00.698Z,18.91
2017-06-30T09:19:29.210Z,19.00
2017-06-30T09:21:58.013Z,18.97
2017-06-30T09:24:26.583Z,19.02
2017-06-30T09:26:55.500Z,19.31
2017-06-30T09:29:23.987Z,19.31
2017-06-30T09:31:52.418Z,19.07
2017-06-30T09:34:20.815Z,19.05
2017-06-30T09:36:49.924Z,19.02
2017-06-30T09:39:18.730Z,19.09
2017-06-30T09:41:47.161Z,19.15
2017-06-30T09:44:15.572Z,19.11
2017-06-30T09:46:44.409Z,19.27
2017-06-30T09:49:12.851Z,19.12
2017-06-30T09:51:41.637Z,19.20
2017-06-30T09:54:10.436Z,19.36
2017-06-30T09:56:39.005Z,19.37
2017-06-30T09:59:07.862Z,19.32
2017-06-30T10:01:36.283Z,19.36
2017-06-30T10:04:05.457Z,19.46
2017-06-30T10:06:33.866Z,19.60
2017-06-30T10:09:02.442Z,19.67
2017-06-30T10:11:32.119Z,19.85
2017-06-30T10:14:00.537Z,19.96
2017-06-30T10:16:29.346Z,20.06
2017-06-30T10:18:57.763Z,20.10
2017-06-30T10:21:26.183Z,20.21
2017-06-30T10:23:54.986Z,20.18
2017-06-30T10:26:23.412Z,20.15
2017-06-30T10:28:51.820Z,20.16
2017-06-30T10:31:20.352Z,20.32
2017-06-30T10:33:48.756Z,20.37
2017-06-30T10:36:17.155Z,20.42
2017-06-30T10:38:45.570Z,20.46
2017-06-30T10:41:13.974Z,20.68
2017-06-30T10:43:42.398Z,20.71
2017-06-30T10:46:10.807Z,20.80
2017-06-30T10:48:39.225Z,20.92
2017-06-30T10:51:07.639Z,21.25
2017-06-30T10:53:36.070Z,21.25
2017-06-30T10:56:04.471Z,21.28
2017-06-30T10:58:34.043Z,21.34
2017-06-30T11:01:02.460Z,21.36
2017-06-30T11:03:31.213Z,21.39
2017-06-30T11:05:59.648Z,21.47
2017-06-30T11:08:28.059Z,21.51
2017-06-30T11:10:56.493Z,21.48
2017-06-30T11:13:24.905Z,21.35
2017-06-30T11:15:53.516Z,21.32
2017-06-30T11:18:21.923Z,21.38
2017-06-30T11:20:50.327Z,21.38
2017-06-30T11:23:18.788Z,21.45
2017-06-30T11:25:47.191Z,21.68
2017-06-30T11:28:15.614Z,21.97
2017-06-30T11:30:44.118Z,21.91
2017-06-30T11:33:12.779Z,21.82
2017-06-30T11:35:41.575Z,21.56
2017-06-30T11:38:10.397Z,21.59
2017-06-30T11:40:38.812Z,21.90
2017-06-30T11:43:07.244Z,22.26
2017-06-30T11:45:35.668Z,22.40
2017-06-30T11:48:04.400Z,22.70
2017-06-30T11:50:32.949Z,22.56
2017-06-30T11:53:01.353Z,22.25
2017-06-30T11:55:30.161Z,22.38
2017-06-30T11:57:58.579Z,22.38
2017-06-30T12:00:26.985Z,22.27
2017-06-30T12:02:55.471Z,22.11
2017-06-30T12:05:23.862Z,22.29
2017-06-30T12:07:52.687Z,22.73
2017-06-30T12:10:21.089Z,22.58
2017-06-30T12:12:49.937Z,22.68
2017-06-30T12:15:18.347Z,22.84
2017-06-30T12:17:46.752Z,22.64
2017-06-30T12:20:15.300Z,22.60
2017-06-30T12:22:43.695Z,22.79
2017-06-30T12:25:12.116Z,22.85
2017-06-30T12:27:40.535Z,22.97
2017-06-30T12:30:08.955Z,23.20
2017-06-30T12:32:37.380Z,23.40
2017-06-30T12:35:06.895Z,23.54
2017-06-30T12:37:35.309Z,23.74
2017-06-30T12:40:03.955Z,23.57
2017-06-30T12:42:32.757Z,23.58
2017-06-30T12:45:01.164Z,23.25
2017-06-30T12:47:29.790Z,22.85
2017-06-30T12:49:58.194Z,22.96
2017-06-30T12:52:26.629Z,23.36
2017-06-30T12:54:55.040Z,23.80
2017-06-30T12:57:24.247Z,24.25
2017-06-30T12:59:53.041Z,24.09
2017-06-30T13:02:21.455Z,23.70
2017-06-30T13:04:49.893Z,23.47
2017-06-30T13:07:18.701Z,23.40
2017-06-30T13:09:47.277Z,23.46
2017-06-30T13:12:15.959Z,23.36
2017-06-30T13:14:44.756Z,23.90
2017-06-30T13:17:13.188Z,24.37
2017-06-30T13:19:41.592Z,24.73
2017-06-30T13:22:10.101Z,24.83
2017-06-30T13:24:38.524Z,24.71
2017-06-30T13:27:07.163Z,24.54
2017-06-30T13:29:35.577Z,24.32
2017-06-30T13:32:04.413Z,24.15
2017-06-30T13:34:32.838Z,23.90
2017-06-30T13:37:01.247Z,23.42
2017-06-30T13:39:29.676Z,22.67
2017-06-30T13:41:58.102Z,22.03
2017-06-30T13:44:26.530Z,21.38
2017-06-30T13:46:55.327Z,21.12
2017-06-30T13:49:24.116Z,21.20
2017-06-30T13:51:52.524Z,21.63
2017-06-30T13:54:20.941Z,22.10
2017-06-30T13:56:49.365Z,22.36
2017-06-30T13:59:17.775Z,22.54
2017-06-30T14:01:46.524Z,22.48
2017-06-30T14:04:14.936Z,22.26
2017-06-30T14:06:43.352Z,21.94
2017-06-30T14:09:11.748Z,21.70
2017-06-30T14:11:40.564Z,20.89
2017-06-30T14:14:08.974Z,20.21
2017-06-30T14:16:38.278Z,19.57
2017-06-30T14:19:06.688Z,19.32
2017-06-30T14:21:35.086Z,19.26
2017-06-30T14:24:03.898Z,19.40
2017-06-30T14:26:32.303Z,19.47
2017-06-30T14:29:00.726Z,19.37
2017-06-30T14:31:29.134Z,19.21
2017-06-30T14:33:57.567Z,19.03
2017-06-30T14:36:26.019Z,18.75
2017-06-30T14:38:54.680Z,18.54
2017-06-30T14:41:23.089Z,18.32
2017-06-30T14:43:51.490Z,18.26
2017-06-30T14:46:19.907Z,18.19
2017-06-30T14:48:48.694Z,18.22
2017-06-30T14:51:17.514Z,18.24
2017-06-30T14:53:45.916Z,18.24
2017-06-30T14:56:14.352Z,18.21
2017-06-30T14:58:43.255Z,18.20
2017-06-30T15:01:11.936Z,18.14
2017-06-30T15:03:40.726Z,18.16
2017-06-30T15:06:09.519Z,18.27
2017-06-30T15:08:37.948Z,18.41
2017-06-30T15:11:06.350Z,18.61
2017-06-30T15:13:34.860Z,18.80
2017-06-30T15:16:03.268Z,19.05
2017-06-30T15:18:31.690Z,19.27
2017-06-30T15:21:00.090Z,19.46
2017-06-30T15:23:29.204Z,19.60
2017-06-30T15:25:57.616Z,19.84
2017-06-30T15:28:26.052Z,19.94
2017-06-30T15:30:54.863Z,19.86
2017-06-30T15:33:23.267Z,19.85
2017-06-30T15:35:51.717Z,19.89
2017-06-30T15:38:20.122Z,19.95
2017-06-30T15:40:48.548Z,19.90
2017-06-30T15:43:16.950Z,19.85
2017-06-30T15:45:45.741Z,20.04
2017-06-30T15:48:14.178Z,20.32
2017-06-30T15:50:42.585Z,20.58
2017-06-30T15:53:11.415Z,20.68
2017-06-30T15:55:39.818Z,20.71
2017-06-30T15:58:08.256Z,20.63
2017-06-30T16:00:36.668Z,20.70
2017-06-30T16:03:05.104Z,20.70
2017-06-30T16:05:33.914Z,20.69
2017-06-30T16:08:02.501Z,20.70
2017-06-30T16:10:31.005Z,20.65
2017-06-30T16:12:59.425Z,20.31
2017-06-30T16:15:27.857Z,19.90
2017-06-30T16:17:56.391Z,19.87
2017-06-30T16:20:24.816Z,19.87
2017-06-30T16:22:53.218Z,19.38
2017-06-30T16:25:21.758Z,18.72
2017-06-30T16:27:50.454Z,17.73
2017-06-30T16:30:18.872Z,17.30
2017-06-30T16:32:47.616Z,17.21
2017-06-30T16:35:16.420Z,17.20
2017-06-30T16:37:44.853Z,17.11
2017-06-30T16:40:13.260Z,17.21
2017-06-30T16:42:42.416Z,17.24
2017-06-30T16:45:10.825Z,17.31
2017-06-30T16:47:39.642Z,17.28
2017-06-30T16:50:08.084Z,17.33
2017-06-30T16:52:36.496Z,17.25
2017-06-30T16:55:05.309Z,17.09
2017-06-30T16:57:33.781Z,16.86
2017-06-30T17:00:02.196Z,16.77
2017-06-30T17:02:30.590Z,16.53
2017-06-30T17:04:59.431Z,16.38
2017-06-30T17:07:27.838Z,16.33
2017-06-30T17:09:56.265Z,16.23
2017-06-30T17:12:25.072Z,16.17
2017-06-30T17:14:53.476Z,16.13
2017-06-30T17:17:21.905Z,16.08
2017-06-30T17:19:50.416Z,16.06
2017-06-30T17:22:18.843Z,16.10
2017-06-30T17:24:47.248Z,16.10
2017-06-30T17:27:15.761Z,16.10
2017-06-30T17:29:44.181Z,16.08
2017-06-30T17:32:13.331Z,16.06
2017-06-30T17:34:42.140Z,16.08
2017-06-30T17:37:10.580Z,16.14
2017-06-30T17:39:39.011Z,16.14
2017-06-30T17:42:07.421Z,16.13
2017-06-30T17:44:35.853Z,16.18
2017-06-30T17:47:04.272Z,16.22
2017-06-30T17:49:32.695Z,16.26
2017-06-30T17:52:02.135Z,16.30
2017-06-30T17:54:30.802Z,16.30
2017-06-30T17:56:59.212Z,16.38
2017-06-30T17:59:27.625Z,16.38
2017-06-30T18:01:56.061Z,16.38
2017-06-30T18:04:24.480Z,16.33
2017-06-30T18:06:52.902Z,16.35
2017-06-30T18:09:21.316Z,16.40
2017-06-30T18:11:49.745Z,16.38
2017-06-30T18:14:18.158Z,16.42
2017-06-30T18:16:47.342Z,16.46
2017-06-30T18:19:16.158Z,16.48
2017-06-30T18:21:44.556Z,16.48
2017-06-30T18:24:12.979Z,16.53
2017-06-30T18:26:41.792Z,16.53
2017-06-30T18:29:10.221Z,16.56
2017-06-30T18:31:40.233Z,16.55
2017-06-30T18:34:08.661Z,16.55
2017-06-30T18:36:37.470Z,16.57
2017-06-30T18:39:06.256Z,16.59
2017-06-30T18:41:34.671Z,16.63
2017-06-30T18:44:03.070Z,16.62
2017-06-30T18:46:31.504Z,16.54
2017-06-30T18:48:59.903Z,16.51
2017-06-30T18:51:28.341Z,16.50
2017-06-30T18:53:57.159Z,16.47
2017-06-30T18:56:25.721Z,16.44
2017-06-30T18:58:54.124Z,16.40
2017-06-30T19:01:22.540Z,16.28
2017-06-30T19:03:51.017Z,16.19
2017-06-30T19:06:19.434Z,16.13
2017-06-30T19:08:48.252Z,16.09
2017-06-30T19:11:16.647Z,16.01
2017-06-30T19:13:45.078Z,15.98
2017-06-30T19:16:13.885Z,15.98
2017-06-30T19:18:42.328Z,15.93
2017-06-30T19:21:10.741Z,15.89
2017-06-30T19:23:39.675Z,15.89
2017-06-30T19:26:08.080Z,15.86
2017-06-30T19:28:36.486Z,15.83
2017-06-30T19:31:05.291Z,15.83
2017-06-30T19:33:33.696Z,15.85
2017-06-30T19:36:02.120Z,15.82
2017-06-30T19:38:30.525Z,15.81
2017-06-30T19:40:59.335Z,15.86
2017-06-30T19:43:27.740Z,15.88
2017-06-30T19:45:56.596Z,15.85
2017-06-30T19:48:25.017Z,15.81
2017-06-30T19:50:53.427Z,15.79
2017-06-30T19:53:21.879Z,15.78
2017-06-30T19:55:50.302Z,15.77
2017-06-30T19:58:19.120Z,15.77
2017-06-30T20:00:47.535Z,15.77
2017-06-30T20:03:16.266Z,15.75
2017-06-30T20:05:45.076Z,15.73
2017-06-30T20:08:13.500Z,15.69
2017-06-30T20:10:41.933Z,15.71
2017-06-30T20:13:10.494Z,15.76
2017-06-30T20:15:39.284Z,15.81
2017-06-30T20:18:08.083Z,15.78
2017-06-30T20:20:36.911Z,15.82
2017-06-30T20:23:05.316Z,15.83
2017-06-30T20:25:33.731Z,15.84
2017-06-30T20:28:02.527Z,15.89
2017-06-30T20:30:30.967Z,15.93
2017-06-30T20:32:59.376Z,15.97
2017-06-30T20:35:28.389Z,16.00
2017-06-30T20:37:57.417Z,16.04
2017-06-30T20:40:25.891Z,16.06
2017-06-30T20:42:54.309Z,16.06
2017-06-30T20:45:22.729Z,16.16
2017-06-30T20:47:51.156Z,16.15
2017-06-30T20:50:19.568Z,16.12
2017-06-30T20:52:48.591Z,16.12
2017-06-30T20:55:16.991Z,16.13
2017-06-30T20:57:45.398Z,16.12
2017-06-30T21:00:13.845Z,16.15
2017-06-30T21:02:42.259Z,16.16
2017-06-30T21:05:10.684Z,16.19
2017-06-30T21:07:39.097Z,16.14
2017-06-30T21:10:07.719Z,16.09
2017-06-30T21:12:36.120Z,16.08
2017-06-30T21:15:04.922Z,16.06
2017-06-30T21:17:33.353Z,16.01
2017-06-30T21:20:01.759Z,15.99
2017-06-30T21:22:30.596Z,15.99
2017-06-30T21:24:59.012Z,15.98
2017-06-30T21:27:27.436Z,16.02
2017-06-30T21:29:55.848Z,16.01
2017-06-30T21:32:24.322Z,16.02
2017-06-30T21:34:52.722Z,16.03
2017-06-30T21:37:21.365Z,16.02
2017-06-30T21:39:49.788Z,16.01
2017-06-30T21:42:18.222Z,16.01
2017-06-30T21:44:46.656Z,16.02
2017-06-30T21:47:15.069Z,16.04
2017-06-30T21:49:43.882Z,16.08
2017-06-30T21:52:12.294Z,16.05
2017-06-30T21:54:41.054Z,16.06
2017-06-30T21:57:10.250Z,16.01
2017-06-30T21:59:38.670Z,16.00
2017-06-30T22:02:07.130Z,15.99
2017-06-30T22:04:35.534Z,15.96
2017-06-30T22:07:03.950Z,15.90
2017-06-30T22:09:32.764Z,15.90
2017-06-30T22:12:01.188Z,15.86
2017-06-30T22:14:29.609Z,15.89
2017-06-30T22:16:58.428Z,15.86
2017-06-30T22:19:26.826Z,15.86
2017-06-30T22:21:55.375Z,15.85
2017-06-30T22:24:23.775Z,15.84
2017-06-30T22:26:52.186Z,15.80
2017-06-30T22:29:20.611Z,15.78
2017-06-30T22:31:49.018Z,15.80
2017-06-30T22:34:17.436Z,15.83
2017-06-30T22:36:45.843Z,15.81
2017-06-30T22:39:14.655Z,15.78
2017-06-30T22:41:43.057Z,15.72
2017-06-30T22:44:11.482Z,15.73
2017-06-30T22:46:40.293Z,15.71
2017-06-30T22:49:08.711Z,15.71
2017-06-30T22:51:37.122Z,15.68
2017-06-30T22:54:05.704Z,15.63
2017-06-30T22:56:34.106Z,15.66
2017-06-30T22:59:02.920Z,15.67
2017-06-30T23:01:31.343Z,15.71
2017-06-30T23:03:59.756Z,15.71
2017-06-30T23:06:28.592Z,15.74
2017-06-30T23:08:57.509Z,15.84
2017-06-30T23:11:26.132Z,15.93
2017-06-30T23:13:54.930Z,15.95
2017-06-30T23:16:23.336Z,16.00
2017-06-30T23:18:51.776Z,16.03
2017-06-30T23:21:20.671Z,16.06
2017-06-30T23:23:49.510Z,16.12
2017-06-30T23:26:17.930Z,16.12
2017-06-30T23:28:46.756Z,16.10
2017-06-30T23:31:15.163Z,16.12
2017-06-30T23:33:43.697Z,16.13
2017-06-30T23:36:12.495Z,16.14
2017-06-30T23:38:41.629Z,16.09
2017-06-30T23:41:10.061Z,16.02
2017-06-30T23:43:38.878Z,15.95
2017-06-30T23:46:07.297Z,15.85
2017-06-30T23:48:35.710Z,15.75
2017-06-30T23:51:04.538Z,15.68
2017-06-30T23:53:32.955Z,15.64
2017-06-30T23:56:01.446Z,15.62
2017-06-30T23:58:29.857Z,15.58
